Time;durP1;ratioP1;P1;durP2;ratioP2;P2;SDS_P1;SDS_P2;PMS_P1;PMS_P2;Temp;Humidity;BMP_temperature;BMP_pressure;BME280_temperature;BME280_humidity;BME280_pressure;Samples;Min_cycle;Max_cycle;Signal;HPM_P1;HPM_P2
2021/12/05 22:13:55;;;;;;;3.00;2.80;;;;;;;1.86;100.00;101225.91;4949999;28;20407;-77
2021/12/05 22:16:21;;;;;;;4.50;4.20;;;;;;;1.81;100.00;101239.03;4944421;28;20027;-77
2021/12/05 22:18:48;;;;;;;3.70;3.50;;;;;;;1.74;100.00;101239.88;4942705;29;20052;-77
2021/12/05 22:21:18;;;;;;;4.00;3.80;;;;;;;1.75;100.00;101246.84;4952075;28;20078;-77
2021/12/05 22:23:55;;;;;;;;;;;;;;;1.73;100.00;101252.97;4951559;28;20074;-77
2021/12/05 22:26:21;;;;;;;3.70;3.50;;;;;;;1.68;100.00;101252.97;4946409;29;19918;-76
2021/12/05 22:28:50;;;;;;;2.55;2.45;;;;;;;1.63;100.00;101251.22;4951649;28;20032;-78
2021/12/05 22:31:16;;;;;;;5.83;4.90;;;;;;;1.68;100.00;101258.22;4947123;28;20034;-77
2021/12/05 22:33:41;;;;;;;3.30;3.10;;;;;;;1.76;100.00;101266.94;4944161;29;20028;-77
2021/12/05 22:36:08;;;;;;;4.25;3.95;;;;;;;1.92;100.00;101273.94;4945838;28;20023;-77
2021/12/05 22:38:39;;;;;;;3.42;3.22;;;;;;;1.98;100.00;101281.78;4948592;29;20450;-76
2021/12/05 22:41:05;;;;;;;3.47;3.28;;;;;;;2.04;100.00;101286.13;4949729;29;20027;-78
2021/12/05 22:43:31;;;;;;;3.97;3.78;;;;;;;2.16;100.00;101289.59;4947692;28;20043;-78
2021/12/05 22:45:57;;;;;;;3.67;3.47;;;;;;;2.30;100.00;101290.44;4947367;28;20458;-77
2021/12/05 22:48:22;;;;;;;4.07;3.88;;;;;;;2.32;100.00;101298.28;4944823;28;20119;-77
2021/12/05 22:50:47;;;;;;;3.42;3.22;;;;;;;2.30;100.00;101293.06;4943762;29;20028;-77
2021/12/05 22:53:13;;;;;;;5.03;4.72;;;;;;;2.34;100.00;101300.06;4947662;28;20026;-78
2021/12/05 22:55:38;;;;;;;3.72;3.53;;;;;;;2.37;100.00;101302.66;4949077;29;20020;-77
2021/12/05 22:58:04;;;;;;;4.57;4.32;;;;;;;2.41;100.00;101300.91;4949936;29;20023;-77
2021/12/05 23:00:41;;;;;;;5.10;4.80;;;;;;;2.48;100.00;101306.13;4946640;29;20432;-78
2021/12/05 23:03:10;;;;;;;3.78;3.58;;;;;;;2.47;100.00;101314.88;4939186;29;20456;-78
2021/12/05 23:05:37;;;;;;;3.85;3.65;;;;;;;2.50;100.00;101317.50;4938859;29;20141;-77
2021/12/05 23:08:03;;;;;;;5.05;4.75;;;;;;;2.56;100.00;101321.84;4941166;29;20111;-78
2021/12/05 23:10:29;;;;;;;3.97;3.78;;;;;;;2.62;100.00;101324.44;4948773;29;20489;-77
2021/12/05 23:12:54;;;;;;;4.07;3.88;;;;;;;2.60;100.00;101324.44;4943839;29;20048;-77
2021/12/05 23:15:19;;;;;;;5.53;5.18;;;;;;;2.55;100.00;101326.19;4945947;29;20028;-78
2021/12/05 23:17:46;;;;;;;4.10;3.90;;;;;;;2.63;100.00;101331.44;4946872;29;20043;-78
2021/12/05 23:20:13;;;;;;;4.55;4.35;;;;;;;2.69;100.00;101332.31;4944677;29;20027;-78
2021/12/05 23:22:38;;;;;;;4.00;3.80;;;;;;;2.84;100.00;101347.97;4949610;29;20074;-77
2021/12/05 23:25:06;;;;;;;3.40;3.20;;;;;;;2.78;100.00;101355.88;4947267;29;20019;-78
2021/12/05 23:27:31;;;;;;;3.90;3.70;;;;;;;2.90;100.00;101352.31;4945842;29;20038;-77
2021/12/05 23:29:57;;;;;;;4.28;4.07;;;;;;;2.90;100.00;101353.19;4944785;29;20024;-78
2021/12/05 23:32:22;;;;;;;4.05;3.85;;;;;;;2.85;100.00;101348.84;4944209;29;20019;-78
2021/12/05 23:34:48;;;;;;;3.72;3.53;;;;;;;2.79;100.00;101351.47;4946333;29;20033;-78
2021/12/05 23:37:14;;;;;;;4.00;3.80;;;;;;;2.74;100.00;101350.66;4946897;29;20087;-77
2021/12/05 23:39:39;;;;;;;4.47;4.18;;;;;;;2.75;100.00;101353.25;4946535;29;20148;-78
2021/12/05 23:42:05;;;;;;;4.57;4.28;;;;;;;2.95;100.00;101361.94;4949075;28;20027;-77
2021/12/05 23:44:32;;;;;;;3.63;3.42;;;;;;;2.87;100.00;101357.56;4943176;29;20026;-77
2021/12/05 23:46:58;;;;;;;4.07;3.72;;;;;;;2.94;100.00;101362.81;4937476;29;20062;-78
2021/12/05 23:49:24;;;;;;;4.35;4.05;;;;;;;2.94;100.00;101370.69;4937469;29;20028;-77
2021/12/05 23:51:50;;;;;;;4.32;4.13;;;;;;;2.94;100.00;101368.06;4937552;29;20414;-78
2021/12/05 23:54:16;;;;;;;3.95;3.65;;;;;;;2.88;100.00;101373.31;4937292;29;20020;-78
2021/12/05 23:56:42;;;;;;;4.18;3.97;;;;;;;2.81;100.00;101371.59;4937108;29;20115;-77
2021/12/05 23:59:08;;;;;;;4.32;4.05;;;;;;;2.85;100.00;101373.31;4938011;29;20051;-78
